createdAt,value
2023-04-19T00:04:16.196Z,5.88
2023-04-19T00:09:19.407Z,4.13
2023-04-19T00:14:23.385Z,5.78
2023-04-19T00:19:26.242Z,3.78
2023-04-19T00:24:28.827Z,7.03
2023-04-19T00:29:32.747Z,4.93
2023-04-19T00:34:35.421Z,5.82
2023-04-19T00:39:38.458Z,5.28
2023-04-19T00:44:43.135Z,7.53
2023-04-19T00:49:45.755Z,3.92
2023-04-19T00:54:48.925Z,10.25
2023-04-19T00:59:52.885Z,5.88
2023-04-19T01:04:55.829Z,7.47
2023-04-19T01:09:58.725Z,6.18
2023-04-19T01:15:02.689Z,5.93
2023-04-19T01:20:07.953Z,6.70
2023-04-19T01:25:12.400Z,6.80
2023-04-19T01:30:18.086Z,5.95
2023-04-19T01:35:21.402Z,8.48
2023-04-19T01:40:26.761Z,6.78
2023-04-19T01:45:29.333Z,6.63
2023-04-19T01:50:31.933Z,8.13
2023-04-19T01:55:35.816Z,7.20
2023-04-19T02:00:38.470Z,7.32
2023-04-19T02:05:41.139Z,7.82
2023-04-19T02:10:45.058Z,5.63
2023-04-19T02:15:47.595Z,11.65
2023-04-19T02:20:50.448Z,8.45
2023-04-19T02:25:54.423Z,7.60
2023-04-19T02:30:57.051Z,8.25
2023-04-19T02:35:59.661Z,8.23
2023-04-19T02:41:04.436Z,7.60
2023-04-19T02:46:07.099Z,7.47
2023-04-19T02:51:09.735Z,8.98
2023-04-19T02:56:16.411Z,7.40
2023-04-19T03:01:19.543Z,6.65
2023-04-19T03:06:22.265Z,10.10
2023-04-19T03:11:26.388Z,8.55
2023-04-19T03:16:30.222Z,10.50
2023-04-19T03:21:33.154Z,8.35
2023-04-19T03:26:37.636Z,9.02
2023-04-19T03:31:40.744Z,9.30
2023-04-19T03:36:46.996Z,9.02
2023-04-19T03:41:51.094Z,9.30
2023-04-19T03:47:18.433Z,9.20
2023-04-19T03:52:25.757Z,6.65
2023-04-19T03:57:29.697Z,6.95
2023-04-19T04:02:34.640Z,6.60
2023-04-19T04:07:37.413Z,7.50
2023-04-19T04:12:41.860Z,9.55
2023-04-19T04:17:46.858Z,10.48
2023-04-19T04:22:49.902Z,5.38
2023-04-19T04:27:56.349Z,5.75
2023-04-19T04:33:01.176Z,6.88
2023-04-19T04:38:11.091Z,4.90
2023-04-19T04:43:22.753Z,4.93
2023-04-19T04:48:25.804Z,3.92
2023-04-19T04:53:28.691Z,3.08
2023-04-19T04:58:32.869Z,3.05
2023-04-19T05:03:39.696Z,3.35
2023-04-19T05:08:47.052Z,5.22
2023-04-19T05:14:00.819Z,1.63
2023-04-19T05:19:03.930Z,3.13
2023-04-19T05:24:10.987Z,3.90
2023-04-19T05:29:15.685Z,3.45
2023-04-19T05:34:27.261Z,5.72
2023-04-19T05:39:32.122Z,3.78
2023-04-19T05:44:36.100Z,2.05
2023-04-19T05:49:39.031Z,3.60
2023-04-19T05:54:53.999Z,1.83
2023-04-19T06:05:09.904Z,2.63
2023-04-19T06:10:13.258Z,2.08
2023-04-19T06:15:17.389Z,5.82
2023-04-19T06:20:20.145Z,2.03
2023-04-19T06:25:23.011Z,2.80
2023-04-19T06:30:27.049Z,3.72
2023-04-19T06:35:29.822Z,2.33
2023-04-19T06:40:32.695Z,2.28
2023-04-19T06:45:36.859Z,6.90
2023-04-19T06:50:39.610Z,2.22
2023-04-19T06:55:42.310Z,2.72
2023-04-19T07:00:46.210Z,3.63
2023-04-19T07:05:48.927Z,2.30
2023-04-19T07:10:51.720Z,2.30
2023-04-19T07:15:55.684Z,1.92
2023-04-19T07:20:58.291Z,2.78
2023-04-19T07:26:00.920Z,1.98
2023-04-19T07:31:05.017Z,2.45
2023-04-19T07:36:08.146Z,2.92
2023-04-19T07:41:10.762Z,3.53
2023-04-19T07:46:16.182Z,1.70
2023-04-19T07:51:19.303Z,3.85
2023-04-19T07:56:23.547Z,2.08
2023-04-19T08:01:27.551Z,3.97
2023-04-19T08:06:30.959Z,2.53
2023-04-19T08:11:33.566Z,2.35
2023-04-19T08:21:43.045Z,2.95
2023-04-19T08:26:53.375Z,4.18
2023-04-19T08:31:57.611Z,2.63
2023-04-19T08:37:03.809Z,2.22
2023-04-19T08:42:13.482Z,4.15
2023-04-19T08:47:32.295Z,4.78
2023-04-19T08:52:47.833Z,3.33
2023-04-19T08:57:54.904Z,2.95
2023-04-19T09:02:59.308Z,1.92
2023-04-19T09:08:17.084Z,3.03
2023-04-19T09:13:30.295Z,5.22
2023-04-19T09:18:37.824Z,3.03
2023-04-19T09:23:47.966Z,3.75
2023-04-19T09:28:56.721Z,4.05
2023-04-19T09:34:12.971Z,3.78
2023-04-19T09:39:15.947Z,3.50
2023-04-19T09:44:52.475Z,1.98
2023-04-19T09:49:49.063Z,2.42
2023-04-19T09:54:53.734Z,3.33
2023-04-19T09:59:56.328Z,3.15
2023-04-19T10:05:16.227Z,2.17
2023-04-19T10:10:27.524Z,2.58
2023-04-19T10:15:51.230Z,4.15
2023-04-19T10:20:59.806Z,3.88
2023-04-19T10:26:02.506Z,3.03
2023-04-19T10:31:05.839Z,1.85
2023-04-19T10:36:11.734Z,4.72
2023-04-19T10:41:17.597Z,3.00
2023-04-19T10:46:36.208Z,2.10
2023-04-19T10:51:43.181Z,3.28
2023-04-19T10:56:59.784Z,2.00
2023-04-19T11:02:02.938Z,5.78
2023-04-19T11:07:07.901Z,2.10
2023-04-19T11:12:11.621Z,3.78
2023-04-19T11:17:17.847Z,3.70
2023-04-19T11:22:25.437Z,3.90
2023-04-19T11:27:28.021Z,3.70
2023-04-19T11:32:30.655Z,3.22
2023-04-19T11:37:36.399Z,4.95
2023-04-19T11:42:39.183Z,2.72
2023-04-19T11:47:48.286Z,4.70
2023-04-19T11:52:52.225Z,8.90
2023-04-19T11:57:54.779Z,4.35
2023-04-19T12:02:57.566Z,3.65
2023-04-19T12:08:03.048Z,3.08
2023-04-19T12:13:17.351Z,2.15
2023-04-19T12:18:20.401Z,4.13
2023-04-19T12:23:24.335Z,3.38
2023-04-19T12:28:26.891Z,3.20
2023-04-19T12:33:29.550Z,6.43
2023-04-19T12:38:33.528Z,3.78
2023-04-19T12:43:36.106Z,4.20
2023-04-19T12:48:38.703Z,3.28
2023-04-19T12:53:48.414Z,3.78
2023-04-19T12:58:51.065Z,3.47
2023-04-19T13:03:56.176Z,3.13
2023-04-19T13:09:11.492Z,4.63
2023-04-19T13:14:16.777Z,4.60
2023-04-19T13:19:19.571Z,2.58
2023-04-19T13:24:23.514Z,3.70
2023-04-19T13:29:26.067Z,4.13
2023-04-19T13:34:29.270Z,4.20
2023-04-19T13:39:33.403Z,3.33
2023-04-19T13:44:36.480Z,3.03
2023-04-19T13:49:39.285Z,5.93
2023-04-19T13:54:43.438Z,3.90
2023-04-19T13:59:46.068Z,3.95
2023-04-19T14:04:48.787Z,3.30
2023-04-19T14:09:52.740Z,3.55
2023-04-19T14:14:55.638Z,3.28
2023-04-19T14:19:58.291Z,4.47
2023-04-19T14:25:02.262Z,3.15
2023-04-19T14:30:05.792Z,3.92
2023-04-19T14:35:11.151Z,2.90
2023-04-19T14:40:16.040Z,4.30
2023-04-19T14:45:18.872Z,2.92
2023-04-19T14:50:21.480Z,6.35
2023-04-19T14:55:27.433Z,5.25
2023-04-19T15:00:30.106Z,5.65
2023-04-19T15:05:35.292Z,5.53
2023-04-19T15:10:39.689Z,3.60
2023-04-19T15:15:42.316Z,3.80
2023-04-19T15:20:44.848Z,3.60
2023-04-19T15:25:49.746Z,4.50
2023-04-19T15:30:57.724Z,4.93
2023-04-19T15:36:00.544Z,5.18
2023-04-19T15:41:04.599Z,7.47
2023-04-19T15:46:07.282Z,3.63
2023-04-19T15:51:12.184Z,6.68
2023-04-19T15:56:16.122Z,6.85
2023-04-19T16:01:19.426Z,5.03
2023-04-19T16:06:23.095Z,4.15
2023-04-19T16:11:27.279Z,4.68
2023-04-19T16:16:33.195Z,6.25
2023-04-19T16:21:36.102Z,3.78
2023-04-19T16:26:40.226Z,3.40
2023-04-19T16:31:42.828Z,3.13
2023-04-19T16:36:45.666Z,2.78
2023-04-19T16:41:49.593Z,3.28
2023-04-19T16:46:52.197Z,4.07
2023-04-19T16:51:54.782Z,3.55
2023-04-19T16:56:59.150Z,4.32
2023-04-19T17:02:02.735Z,5.88
2023-04-19T17:07:06.036Z,2.95
2023-04-19T17:12:09.975Z,3.28
2023-04-19T17:17:12.786Z,4.75
2023-04-19T17:22:15.591Z,4.38
2023-04-19T17:27:19.525Z,5.22
2023-04-19T17:32:22.108Z,2.90
2023-04-19T17:37:24.845Z,3.47
2023-04-19T17:42:28.784Z,4.28
2023-04-19T17:47:31.491Z,3.58
2023-04-19T17:52:34.083Z,6.05
2023-04-19T17:57:38.239Z,4.20
2023-04-19T18:02:41.394Z,6.20
2023-04-19T18:07:44.321Z,4.05
2023-04-19T18:12:48.256Z,4.00
2023-04-19T18:17:51.050Z,4.93
2023-04-19T18:22:54.446Z,5.20
2023-04-19T18:27:58.327Z,4.07
2023-04-19T18:33:00.927Z,4.32
2023-04-19T18:38:03.674Z,3.47
2023-04-19T18:43:07.710Z,4.28
2023-04-19T18:48:10.298Z,3.55
2023-04-19T18:53:13.030Z,4.93
2023-04-19T18:58:18.649Z,4.63
2023-04-19T19:08:32.036Z,4.40
2023-04-19T19:13:36.167Z,4.30
2023-04-19T19:18:39.310Z,5.00
2023-04-19T19:23:42.870Z,5.50
2023-04-19T19:28:47.316Z,4.15
2023-04-19T19:33:58.099Z,5.65
2023-04-19T19:39:12.354Z,5.65
2023-04-19T19:44:16.276Z,4.18
2023-04-19T19:49:19.257Z,8.65
2023-04-19T19:54:22.484Z,4.28
2023-04-19T19:59:30.125Z,4.18
2023-04-19T20:04:34.990Z,3.40
2023-04-19T20:09:38.193Z,4.72
2023-04-19T20:14:42.462Z,4.05
2023-04-19T20:19:44.989Z,6.38
2023-04-19T20:24:47.623Z,2.97
2023-04-19T20:29:51.617Z,3.63
2023-04-19T20:34:54.138Z,4.97
2023-04-19T20:39:58.465Z,3.58
2023-04-19T20:45:02.708Z,4.93
2023-04-19T20:50:05.624Z,3.47
2023-04-19T20:55:08.628Z,3.55
2023-04-19T21:00:16.122Z,2.90
2023-04-19T21:05:18.858Z,3.25
2023-04-19T21:10:22.230Z,3.55
2023-04-19T21:15:26.208Z,2.95
2023-04-19T21:20:28.778Z,2.97
2023-04-19T21:25:31.368Z,3.53
2023-04-19T21:30:38.585Z,3.33
2023-04-19T21:35:41.242Z,3.25
2023-04-19T21:40:44.159Z,4.88
2023-04-19T21:45:48.315Z,4.03
2023-04-19T21:50:50.848Z,3.40
2023-04-19T21:55:53.466Z,3.45
2023-04-19T22:00:57.455Z,4.63
2023-04-19T22:06:01.909Z,6.72
2023-04-19T22:11:04.679Z,5.18
2023-04-19T22:16:08.896Z,3.80
2023-04-19T22:21:12.059Z,3.55
2023-04-19T22:26:14.613Z,3.40
2023-04-19T22:31:18.469Z,4.00
2023-04-19T22:36:21.149Z,4.47
2023-04-19T22:41:23.661Z,3.55
2023-04-19T22:46:27.775Z,3.90
2023-04-19T22:51:30.439Z,3.25
2023-04-19T22:56:32.959Z,3.30
2023-04-19T23:01:36.912Z,2.97
2023-04-19T23:06:39.716Z,3.42
2023-04-19T23:11:42.447Z,3.85
2023-04-19T23:16:46.565Z,3.08
2023-04-19T23:21:49.201Z,3.03
2023-04-19T23:26:52.062Z,2.30
2023-04-19T23:31:56.081Z,3.03
2023-04-19T23:36:59.742Z,2.47
2023-04-19T23:42:02.296Z,2.65
2023-04-19T23:47:06.290Z,2.42
2023-04-19T23:52:09.135Z,2.67
2023-04-19T23:57:11.856Z,3.45
